Rota, Spain
Current Conditions -  °F | °C
As of 2:00 PM on Wednesday 22 Oct 2014 (Local Time) from LERT Reporting Station
Clear Clear  
Wind Chill: 88°   Ceiling: Unl
Heat Index: 88°   Visibility: 6mi
Dew Point: 52°   Wind: 12mph
Humidity: 29%   Direction: 30°NNE
Pressure: 30.18"   Gusts: NA
Location:  36.62°N, 6.36°W
Report Text: LERT 221200Z 03010KT 360V060 CAVOK 31/11 Q1022 NOSIG
Loading
Personal Weather Stations






























Interactive Weather Map
Tropical Storm Tracking
New forecast layout! Learn more

10-Day Weather Forecast

Advertisements
Track Severe Weather on mobile